Telluride, CO

5:43 AM MST on February 28, 2015 (GMT -0700)
Upper Benchmark | Change Station
CLOSE
Current Station
Personal Weather Station
Location: Mountain Village, CO
Elevation: 10118 ft
Nearby Weather Stations
Active Advisory: Winter Storm Warning Active Notice: Local Storm Report

Elev 10118 ft 37.92 °N, 107.86 °W | Updated 20 seconds ago

Mostly Cloudy
Mostly Cloudy
10.2 °F
Feels Like 10 °F
N
0.0
Wind Variable Wind from SSE
Gusts 0.0 mph

Today
High -- | Low -- °F
--% Chance of Precip.
Yesterday
High -- | Low -- °F
Precip. -- in
6:44 AM 6:03 PM
Waxing Gibbous, 77% visible
Pressure 29.72 in
Visibility 10.0 miles
Clouds Mostly Cloudy 12000 ft
Windchill 10 °F
Dew Point 2 °F
Humidity 69%
Rainfall 0.00 in
Snow Depth Not available.
UV 0.0 out of 12
Pollen 2.10 out of 12
Air Quality Not available.
Flu Activity Not available.
METAR KTEX 281235Z AUTO 13004KT 10SM BKN120 M06/M12 A2972 RMK AO2 T10631118

More Conditions Fewer Conditions

Pressure 29.72 in
Visibility 10.0 miles
Clouds Mostly Cloudy 12000 ft
Windchill 10 °F
Dew Point 2 °F
Humidity 69%
Rainfall 0.00 in
Snow Depth Not available.
UV 0.0 out of 12
Pollen 2.10 out of 12
Air Quality Not available.
Flu Activity Not available.
METAR KTEX 281235Z AUTO 13004KT 10SM BKN120 M06/M12 A2972 RMK AO2 T10631118

More Conditions Fewer Conditions

10-Day Weather Forecast

Almanac

Astronomy

Feb. 28, 2015 Rise Set
Actual Time
Civil Twilight
Nautical Twilight
Astronomical Twilight
Moon
Length of Visible Light
Length of Day
Tomorrow will be .
, % of the Moon is Illuminated

Today's Extremes

State Highs State Lows

Community

WunderPhotos

Upload Photos

1,801,000 photos uploaded!

WunderBlogs® & News

Nearby

Air Quality

  Air Quality AQ Index Pollutant
Not available.

Snow Depth

Station Depth Elevation

Earthquake Activity

City Distance Mag. Time & Date
Minimum magnitude displayed is 2.5.

Coastal Water Temperatures

Place Temperature

Nearby Weather Stations

Winter Storm Warning
Statement as of 4:46 AM MST on February 28, 2015

... Winter Storm Warning remains in effect until 8 PM MST Monday...

* locations include the cities of... Ouray... Telluride... Lake
City... Silverton... Rico... Hesperus.

* Timing... through Monday evening. Snow will be heavy at times
especially this afternoon and Sunday afternoon.

* Snow accumulation... 2 to 4 feet with the highest amounts
expected from Silverton southeast to the New Mexico border.

* Winds... southwest 25 to 35 mph with higher gusts Saturday and
Saturday night.

* Visibility... restricted at times in snow and blowing snow.

* Impacts... travel is expected to become difficult or impossible
this weekend through Wednesday.

Precautionary/preparedness actions...

A Winter Storm Warning means significant amounts of snow are
expected or occurring. Strong winds and blowing snow are also
possible. This will make travel very hazardous or impossible.